Pelham, Alabama
Current Conditions -  °F | °C
As of 2:53 PM on Monday 22 Dec 2014 (Local Time) from KEET Reporting Station
Light Rain Light Rain  
Wind Chill: 54°   Ceiling: 600
Heat Index: 54°   Visibility: 9mi
Dew Point: 52°   Wind: 7mph
Humidity: 93%   Direction: 120°ESE
Pressure: 29.79"   Gusts: NA
Location:  33.28°N, 86.81°W
Report Text: KEET 222053Z AUTO 12006KT 9SM -RA BKN006 BKN014 OVC033 12/11 A2979 RMK AO2 CIG 004V009 SLP087 P0004 60011 T01220111 56014
Loading
Personal Weather Stations






























Interactive Weather Map New forecast layout! Learn more

10-Day Weather Forecast

Advertisements
Track Severe Weather on mobile